createdAt,value
2023-01-06T00:01:19.866Z,6.65
2023-01-06T00:03:52.750Z,6.78
2023-01-06T00:06:27.739Z,7.75
2023-01-06T00:09:03.759Z,7.88
2023-01-06T00:11:31.840Z,5.72
2023-01-06T00:14:00.245Z,8.25
2023-01-06T00:16:27.847Z,8.32
2023-01-06T00:18:57.579Z,8.18
2023-01-06T00:21:25.836Z,8.15
2023-01-06T00:23:53.597Z,8.75
2023-01-06T00:26:21.601Z,9.57
2023-01-06T00:28:52.592Z,9.00
2023-01-06T00:31:20.235Z,10.27
2023-01-06T00:33:47.789Z,12.55
2023-01-06T00:36:15.647Z,7.97
2023-01-06T00:38:43.412Z,9.80
2023-01-06T00:41:31.809Z,9.77
2023-01-06T00:44:00.545Z,8.85
2023-01-06T00:46:30.253Z,8.23
2023-01-06T00:49:04.928Z,8.80
2023-01-06T00:51:36.412Z,8.25
2023-01-06T00:54:04.535Z,10.93
2023-01-06T00:56:32.078Z,8.90
2023-01-06T00:58:59.705Z,9.43
2023-01-06T01:01:27.339Z,7.00
2023-01-06T01:03:55.270Z,9.55
2023-01-06T01:06:22.903Z,9.88
2023-01-06T01:08:58.919Z,10.32
2023-01-06T01:11:45.843Z,9.55
2023-01-06T01:14:16.438Z,8.68
2023-01-06T01:16:44.808Z,8.80
2023-01-06T01:19:13.425Z,8.98
2023-01-06T01:21:41.505Z,7.82
2023-01-06T01:24:09.469Z,8.85
2023-01-06T01:26:37.123Z,9.63
2023-01-06T01:29:05.024Z,7.20
2023-01-06T01:31:32.841Z,7.95
2023-01-06T01:34:02.187Z,8.52
2023-01-06T01:36:29.952Z,8.95
2023-01-06T01:38:58.629Z,8.25
2023-01-06T01:41:27.695Z,8.38
2023-01-06T01:43:56.592Z,7.65
2023-01-06T01:46:34.116Z,7.25
2023-01-06T01:49:26.975Z,9.68
2023-01-06T01:51:57.587Z,9.65
2023-01-06T01:54:30.103Z,7.82
2023-01-06T01:57:14.157Z,6.53
2023-01-06T01:59:43.498Z,10.32
2023-01-06T02:02:13.961Z,9.82
2023-01-06T02:04:45.019Z,9.40
2023-01-06T02:07:13.308Z,8.52
2023-01-06T02:09:59.309Z,9.57
2023-01-06T02:12:26.884Z,10.20
2023-01-06T02:14:54.580Z,8.45
2023-01-06T02:17:40.466Z,8.07
2023-01-06T02:20:13.789Z,6.50
2023-01-06T02:23:05.595Z,7.50
2023-01-06T02:25:36.161Z,9.37
2023-01-06T02:28:22.961Z,8.25
2023-01-06T02:31:24.279Z,7.90
2023-01-06T02:34:03.589Z,7.83
2023-01-06T02:37:14.785Z,8.63
2023-01-06T02:39:49.821Z,9.38
2023-01-06T02:42:47.362Z,9.85
2023-01-06T02:45:39.765Z,8.02
2023-01-06T02:48:46.894Z,7.32
2023-01-06T02:51:25.662Z,7.25
2023-01-06T02:54:23.579Z,8.00
2023-01-06T02:57:03.896Z,7.13
2023-01-06T02:59:36.644Z,7.07
2023-01-06T03:02:06.726Z,7.23
2023-01-06T03:04:40.158Z,8.30
2023-01-06T03:07:09.762Z,8.55
2023-01-06T03:09:40.136Z,6.88
2023-01-06T03:12:20.296Z,6.43
2023-01-06T03:14:53.203Z,7.25
2023-01-06T03:17:20.946Z,7.53
2023-01-06T03:19:48.508Z,7.25
2023-01-06T03:22:18.281Z,7.82
2023-01-06T03:24:46.555Z,7.35
2023-01-06T03:27:20.493Z,5.95
2023-01-06T03:29:49.073Z,6.88
2023-01-06T03:32:26.886Z,6.85
2023-01-06T03:35:22.147Z,7.03
2023-01-06T03:38:04.847Z,7.07
2023-01-06T03:40:46.826Z,6.35
2023-01-06T03:43:17.425Z,6.65
2023-01-06T03:45:57.031Z,7.47
2023-01-06T03:48:57.303Z,7.40
2023-01-06T03:51:28.100Z,7.75
2023-01-06T03:54:08.310Z,7.07
2023-01-06T03:56:45.853Z,7.50
2023-01-06T03:59:19.485Z,7.32
2023-01-06T04:01:50.942Z,7.40
2023-01-06T04:04:20.499Z,7.93
2023-01-06T04:06:49.299Z,6.40
2023-01-06T04:09:17.195Z,7.07
2023-01-06T04:12:03.854Z,6.18
2023-01-06T04:14:34.564Z,6.30
2023-01-06T04:17:03.048Z,6.07
2023-01-06T04:19:30.907Z,5.28
2023-01-06T04:21:58.396Z,5.50
2023-01-06T04:24:29.821Z,5.53
2023-01-06T04:26:57.866Z,5.97
2023-01-06T04:29:25.427Z,5.65
2023-01-06T04:31:55.479Z,5.53
2023-01-06T04:34:23.258Z,5.50
2023-01-06T04:36:50.840Z,5.32
2023-01-06T04:39:18.738Z,4.70
2023-01-06T04:41:46.241Z,4.95
2023-01-06T04:44:13.688Z,5.10
2023-01-06T04:46:41.339Z,5.30
2023-01-06T04:49:09.067Z,6.18
2023-01-06T04:51:36.581Z,5.97
2023-01-06T04:54:04.307Z,6.43
2023-01-06T04:56:31.849Z,6.22
2023-01-06T04:58:59.467Z,6.22
2023-01-06T05:01:27.930Z,6.88
2023-01-06T05:03:55.673Z,7.40
2023-01-06T05:06:23.555Z,6.55
2023-01-06T05:08:51.200Z,7.15
2023-01-06T05:11:24.640Z,7.68
2023-01-06T05:13:52.874Z,6.28
2023-01-06T05:16:29.046Z,10.20
2023-01-06T05:18:57.657Z,8.63
2023-01-06T05:21:27.190Z,8.63
2023-01-06T05:23:55.909Z,9.60
2023-01-06T05:26:25.424Z,9.40
2023-01-06T05:28:53.428Z,7.90
2023-01-06T05:31:21.027Z,8.15
2023-01-06T05:33:48.764Z,8.35
2023-01-06T05:36:18.607Z,9.05
2023-01-06T05:38:52.563Z,7.82
2023-01-06T05:41:20.402Z,10.38
2023-01-06T05:43:47.887Z,9.48
2023-01-06T05:46:15.506Z,10.75
2023-01-06T05:48:43.265Z,11.02
2023-01-06T05:51:14.001Z,11.93
2023-01-06T05:53:44.321Z,10.02
2023-01-06T05:56:15.617Z,10.15
2023-01-06T05:58:45.997Z,9.23
2023-01-06T06:01:25.451Z,10.80
2023-01-06T06:03:54.397Z,8.85
2023-01-06T06:06:24.016Z,8.88
2023-01-06T06:08:51.842Z,9.38
2023-01-06T06:11:20.353Z,8.25
2023-01-06T06:13:55.410Z,8.07
2023-01-06T06:16:25.837Z,9.43
2023-01-06T06:18:55.743Z,10.15
2023-01-06T06:21:26.882Z,8.63
2023-01-06T06:23:55.813Z,8.63
2023-01-06T06:26:23.818Z,8.70
2023-01-06T06:28:51.626Z,8.00
2023-01-06T06:31:27.870Z,9.20
2023-01-06T06:33:58.067Z,8.68
2023-01-06T06:36:26.143Z,9.35
2023-01-06T06:38:55.058Z,10.10
2023-01-06T06:41:23.284Z,10.85
2023-01-06T06:43:51.898Z,10.75
2023-01-06T06:46:20.449Z,10.90
2023-01-06T06:48:49.807Z,8.10
2023-01-06T06:51:19.557Z,8.57
2023-01-06T06:53:47.778Z,8.98
2023-01-06T06:56:17.243Z,8.45
2023-01-06T06:58:45.023Z,12.73
2023-01-06T07:01:18.699Z,10.93
2023-01-06T07:06:17.989Z,10.50
2023-01-06T07:08:46.986Z,10.48
2023-01-06T07:11:14.951Z,7.97
2023-01-06T07:13:42.524Z,8.93
2023-01-06T07:16:10.408Z,8.63
2023-01-06T07:18:37.980Z,8.07
2023-01-06T07:21:06.435Z,9.15
2023-01-06T07:23:34.632Z,7.97
2023-01-06T07:26:03.172Z,7.78
2023-01-06T07:28:32.271Z,6.70
2023-01-06T07:31:00.934Z,7.53
2023-01-06T07:33:29.651Z,8.20
2023-01-06T07:35:57.890Z,9.70
2023-01-06T07:38:25.963Z,9.68
2023-01-06T07:40:53.831Z,9.13
2023-01-06T07:43:21.433Z,10.48
2023-01-06T07:45:49.449Z,8.18
2023-01-06T07:48:17.325Z,10.75
2023-01-06T07:50:44.992Z,10.90
2023-01-06T07:53:13.397Z,10.55
2023-01-06T07:55:40.847Z,8.75
2023-01-06T07:58:09.968Z,8.98
2023-01-06T08:00:37.902Z,11.02
2023-01-06T08:03:07.169Z,10.48
2023-01-06T08:05:38.561Z,7.82
2023-01-06T08:08:06.271Z,9.48
2023-01-06T08:10:34.504Z,8.02
2023-01-06T08:13:01.967Z,9.52
2023-01-06T08:15:29.545Z,7.10
2023-01-06T08:17:57.157Z,6.80
2023-01-06T08:20:24.899Z,8.05
2023-01-06T08:22:52.389Z,6.90
2023-01-06T08:25:19.954Z,7.68
2023-01-06T08:27:47.520Z,8.10
2023-01-06T08:30:16.933Z,8.10
2023-01-06T08:32:44.448Z,8.98
2023-01-06T08:35:11.988Z,9.82
2023-01-06T08:37:39.383Z,8.50
2023-01-06T08:40:07.398Z,9.77
2023-01-06T08:42:34.863Z,9.48
2023-01-06T08:45:02.479Z,10.35
2023-01-06T08:47:31.349Z,9.07
2023-01-06T08:49:58.869Z,9.07
2023-01-06T08:52:26.316Z,7.63
2023-01-06T08:54:53.841Z,9.68
2023-01-06T08:57:21.264Z,9.48
2023-01-06T08:59:48.842Z,5.88
2023-01-06T09:02:16.441Z,5.57
2023-01-06T09:04:44.086Z,9.20
2023-01-06T09:07:11.607Z,6.88
2023-01-06T09:09:39.103Z,7.28
2023-01-06T09:12:08.128Z,6.38
2023-01-06T09:14:35.723Z,7.55
2023-01-06T09:17:03.225Z,7.22
2023-01-06T09:19:30.805Z,8.27
2023-01-06T09:22:00.232Z,8.48
2023-01-06T09:24:28.481Z,8.77
2023-01-06T09:26:56.005Z,7.50
2023-01-06T09:29:23.552Z,8.85
2023-01-06T09:31:50.985Z,7.35
2023-01-06T09:34:18.484Z,8.90
2023-01-06T09:36:46.220Z,9.48
2023-01-06T09:39:13.625Z,9.40
2023-01-06T09:42:14.935Z,9.88
2023-01-06T09:44:50.646Z,7.55
2023-01-06T09:47:22.440Z,7.28
2023-01-06T09:50:03.030Z,8.80
2023-01-06T09:53:03.655Z,9.55
2023-01-06T09:55:45.536Z,9.07
2023-01-06T09:58:16.578Z,10.32
2023-01-06T10:00:46.237Z,10.07
2023-01-06T10:03:16.950Z,10.35
2023-01-06T10:06:05.832Z,10.15
2023-01-06T10:08:57.817Z,9.80
2023-01-06T10:11:37.651Z,8.57
2023-01-06T10:14:26.508Z,7.60
2023-01-06T10:17:02.480Z,9.75
2023-01-06T10:19:38.857Z,8.07
2023-01-06T10:22:24.564Z,7.57
2023-01-06T10:25:17.333Z,10.20
2023-01-06T10:27:51.823Z,13.60
2023-01-06T10:30:40.154Z,13.00
2023-01-06T10:33:15.893Z,14.20
2023-01-06T10:35:43.675Z,14.65
2023-01-06T10:38:13.009Z,14.93
2023-01-06T10:40:41.170Z,16.10
2023-01-06T10:43:13.000Z,14.98
2023-01-06T10:45:43.232Z,14.10
2023-01-06T10:48:18.733Z,11.93
2023-01-06T10:50:46.506Z,13.73
2023-01-06T10:53:16.033Z,15.63
2023-01-06T10:55:54.608Z,16.27
2023-01-06T10:58:31.183Z,15.00
2023-01-06T11:01:09.695Z,12.43
2023-01-06T11:03:37.655Z,12.82
2023-01-06T11:06:24.494Z,13.57
2023-01-06T11:08:52.223Z,13.02
2023-01-06T11:11:28.226Z,14.25
2023-01-06T11:13:59.858Z,15.88
2023-01-06T11:16:33.368Z,18.98
2023-01-06T11:19:04.079Z,17.52
2023-01-06T11:21:47.102Z,16.08
2023-01-06T11:24:26.644Z,13.68
2023-01-06T11:27:01.490Z,14.48
2023-01-06T11:29:34.668Z,13.68
2023-01-06T11:32:20.804Z,12.15
2023-01-06T11:34:55.856Z,11.75
2023-01-06T11:37:43.817Z,10.93
2023-01-06T11:40:25.652Z,12.98
2023-01-06T11:42:56.435Z,12.73
2023-01-06T11:45:42.311Z,14.73
2023-01-06T11:48:32.505Z,14.63
2023-01-06T11:51:02.912Z,13.85
2023-01-06T11:53:31.593Z,11.15
2023-01-06T11:56:03.827Z,9.90
2023-01-06T11:58:52.056Z,13.25
2023-01-06T12:01:57.623Z,10.45
2023-01-06T12:04:36.239Z,10.70
2023-01-06T12:07:42.144Z,10.25
2023-01-06T12:10:23.113Z,10.35
2023-01-06T12:12:50.989Z,11.75
2023-01-06T12:15:19.784Z,11.77
2023-01-06T12:17:55.822Z,10.48
2023-01-06T12:20:27.888Z,9.98
2023-01-06T12:22:59.142Z,12.73
2023-01-06T12:25:41.157Z,11.40
2023-01-06T12:28:31.637Z,10.38
2023-01-06T12:31:17.025Z,11.35
2023-01-06T12:33:56.726Z,10.60
2023-01-06T12:36:41.527Z,10.95
2023-01-06T12:39:17.673Z,10.13
2023-01-06T12:41:56.776Z,13.02
2023-01-06T12:44:33.413Z,13.52
2023-01-06T12:47:31.686Z,11.35
2023-01-06T12:50:24.878Z,14.10
2023-01-06T12:53:01.282Z,12.73
2023-01-06T12:55:53.735Z,12.48
2023-01-06T12:59:05.491Z,10.38
2023-01-06T13:02:00.189Z,9.98
2023-01-06T13:04:30.918Z,10.70
2023-01-06T13:07:01.527Z,10.70
2023-01-06T13:09:38.274Z,9.48
2023-01-06T13:12:36.693Z,11.45
2023-01-06T13:15:32.244Z,10.05
2023-01-06T13:18:14.872Z,7.38
2023-01-06T13:20:48.596Z,8.63
2023-01-06T13:26:07.651Z,10.82
2023-01-06T13:28:59.880Z,11.57
2023-01-06T13:31:28.033Z,10.45
2023-01-06T13:34:26.294Z,10.93
2023-01-06T13:37:24.600Z,13.10
2023-01-06T13:40:20.122Z,10.80
2023-01-06T13:42:56.625Z,10.88
2023-01-06T13:45:30.721Z,10.32
2023-01-06T13:48:01.489Z,11.45
2023-01-06T13:50:29.319Z,10.68
2023-01-06T13:52:56.942Z,11.85
2023-01-06T13:55:34.138Z,11.40
2023-01-06T13:58:27.083Z,13.13
2023-01-06T14:01:20.562Z,10.38
2023-01-06T14:03:50.560Z,11.82
2023-01-06T14:06:23.974Z,10.10
2023-01-06T14:09:00.272Z,10.38
2023-01-06T14:11:39.174Z,11.88
2023-01-06T14:14:27.418Z,8.23
2023-01-06T14:16:56.679Z,9.95
2023-01-06T14:19:40.186Z,11.02
2023-01-06T14:22:16.824Z,8.95
2023-01-06T14:24:51.336Z,10.82
2023-01-06T14:28:01.523Z,9.95
2023-01-06T14:30:32.599Z,10.98
2023-01-06T14:33:08.043Z,8.57
2023-01-06T14:35:43.501Z,8.25
2023-01-06T14:38:27.240Z,8.90
2023-01-06T14:41:07.523Z,8.32
2023-01-06T14:43:44.191Z,9.57
2023-01-06T14:46:22.585Z,8.93
2023-01-06T14:49:01.951Z,10.55
2023-01-06T14:51:32.014Z,9.63
2023-01-06T14:54:24.409Z,10.35
2023-01-06T14:57:40.900Z,8.25
2023-01-06T15:00:16.461Z,8.63
2023-01-06T15:02:51.930Z,8.95
2023-01-06T15:05:35.150Z,9.77
2023-01-06T15:08:23.630Z,9.95
2023-01-06T15:10:52.083Z,8.93
2023-01-06T15:13:33.116Z,9.85
2023-01-06T15:16:14.460Z,9.68
2023-01-06T15:18:43.928Z,9.13
2023-01-06T15:21:13.426Z,7.95
2023-01-06T15:23:47.666Z,9.15
2023-01-06T15:26:18.629Z,5.20
2023-01-06T15:29:03.965Z,6.40
2023-01-06T15:31:34.583Z,5.97
2023-01-06T15:34:07.119Z,7.63
2023-01-06T15:36:35.782Z,6.95
2023-01-06T15:39:05.757Z,6.82
2023-01-06T15:41:34.528Z,7.68
2023-01-06T15:44:23.863Z,5.97
2023-01-06T15:46:57.132Z,5.47
2023-01-06T15:49:35.345Z,6.40
2023-01-06T15:52:23.820Z,8.25
2023-01-06T15:54:53.335Z,7.70
2023-01-06T15:57:21.645Z,7.78
2023-01-06T16:00:06.432Z,2.95
2023-01-06T16:02:34.412Z,6.80
2023-01-06T16:05:02.784Z,5.85
2023-01-06T16:07:35.590Z,2.10
2023-01-06T16:10:32.459Z,6.45
2023-01-06T16:13:19.048Z,7.00
2023-01-06T16:15:51.266Z,2.55
2023-01-06T16:18:27.484Z,4.40
2023-01-06T16:20:56.116Z,2.47
2023-01-06T16:23:32.502Z,4.60
2023-01-06T16:26:12.252Z,5.90
2023-01-06T16:28:54.615Z,2.33
2023-01-06T16:31:31.477Z,3.77
2023-01-06T16:34:18.375Z,1.88
2023-01-06T16:36:45.905Z,3.08
2023-01-06T16:39:14.224Z,4.05
2023-01-06T16:42:00.197Z,2.97
2023-01-06T16:44:31.726Z,4.85
2023-01-06T16:47:02.104Z,4.75
2023-01-06T16:49:31.076Z,6.68
2023-01-06T16:51:59.831Z,7.38
2023-01-06T16:54:27.503Z,4.03
2023-01-06T16:56:54.960Z,4.80
2023-01-06T16:59:22.571Z,3.25
2023-01-06T17:01:50.286Z,2.83
2023-01-06T17:04:17.929Z,3.33
2023-01-06T17:06:46.230Z,2.10
2023-01-06T17:09:21.987Z,2.45
2023-01-06T17:11:54.476Z,2.80
2023-01-06T17:14:23.670Z,2.53
2023-01-06T17:16:51.461Z,2.65
2023-01-06T17:19:25.513Z,2.88
2023-01-06T17:22:03.231Z,3.13
2023-01-06T17:24:31.677Z,2.90
2023-01-06T17:27:11.993Z,2.35
2023-01-06T17:29:39.682Z,2.53
2023-01-06T17:32:37.519Z,3.13
2023-01-06T17:35:28.754Z,3.42
2023-01-06T17:38:00.985Z,4.80
2023-01-06T17:40:35.280Z,3.67
2023-01-06T17:43:08.108Z,3.45
2023-01-06T17:45:36.905Z,2.97
2023-01-06T17:48:11.999Z,3.40
2023-01-06T17:50:49.986Z,3.92
2023-01-06T17:53:41.639Z,3.45
2023-01-06T17:56:11.519Z,4.10
2023-01-06T17:58:41.677Z,3.10
2023-01-06T18:01:14.782Z,3.28
2023-01-06T18:03:44.079Z,3.22
2023-01-06T18:06:39.906Z,3.55
2023-01-06T18:09:07.522Z,3.45
2023-01-06T18:11:51.172Z,3.25
2023-01-06T18:14:29.241Z,3.95
2023-01-06T18:16:59.641Z,4.18
2023-01-06T18:19:37.857Z,3.33
2023-01-06T18:22:35.871Z,3.45
2023-01-06T18:25:03.758Z,3.60
2023-01-06T18:27:34.905Z,3.17
2023-01-06T18:30:21.894Z,2.85
2023-01-06T18:32:51.393Z,3.45
2023-01-06T18:35:22.599Z,3.50
2023-01-06T18:37:50.498Z,2.28
2023-01-06T18:40:24.368Z,3.83
2023-01-06T18:42:53.946Z,5.15
2023-01-06T18:45:23.666Z,7.68
2023-01-06T18:48:13.431Z,6.97
2023-01-06T18:50:47.131Z,4.22
2023-01-06T18:53:14.561Z,7.90
2023-01-06T18:56:03.366Z,5.75
2023-01-06T18:58:47.978Z,10.82
2023-01-06T19:01:22.612Z,11.77
2023-01-06T19:04:07.178Z,5.43
2023-01-06T19:06:38.952Z,12.90
2023-01-06T19:09:34.722Z,3.58
2023-01-06T19:12:08.348Z,5.43
2023-01-06T19:14:42.202Z,3.05
2023-01-06T19:20:02.443Z,4.45
2023-01-06T19:22:37.293Z,6.55
2023-01-06T19:25:24.552Z,4.55
2023-01-06T19:28:00.383Z,7.65
2023-01-06T19:30:37.016Z,2.70
2023-01-06T19:33:24.974Z,5.25
2023-01-06T19:36:11.713Z,3.15
2023-01-06T19:38:41.993Z,2.65
2023-01-06T19:41:34.580Z,2.30
2023-01-06T19:44:11.537Z,2.35
2023-01-06T19:46:45.014Z,3.33
2023-01-06T19:49:20.102Z,2.00
2023-01-06T19:51:53.507Z,1.67
2023-01-06T19:54:23.948Z,1.65
2023-01-06T19:56:53.493Z,2.28
2023-01-06T19:59:25.994Z,2.35
2023-01-06T20:02:03.810Z,2.72
2023-01-06T20:04:31.486Z,1.92
2023-01-06T20:06:59.385Z,1.40
2023-01-06T20:09:26.909Z,1.48
2023-01-06T20:11:54.656Z,2.55
2023-01-06T20:14:22.431Z,4.85
2023-01-06T20:16:52.930Z,1.70
2023-01-06T20:19:23.557Z,3.00
2023-01-06T20:21:51.305Z,1.83
2023-01-06T20:24:19.109Z,2.00
2023-01-06T20:26:46.605Z,2.22
2023-01-06T20:29:14.223Z,2.00
2023-01-06T20:31:41.761Z,1.73
2023-01-06T20:34:09.297Z,2.05
2023-01-06T20:36:36.864Z,2.67
2023-01-06T20:39:04.311Z,1.58
2023-01-06T20:41:31.968Z,1.75
2023-01-06T20:43:59.503Z,3.53
2023-01-06T20:46:27.040Z,3.58
2023-01-06T20:48:54.584Z,5.20
2023-01-06T20:51:22.052Z,2.58
2023-01-06T20:53:49.617Z,3.40
2023-01-06T20:56:17.266Z,3.00
2023-01-06T20:58:44.868Z,2.88
2023-01-06T21:01:12.448Z,2.50
2023-01-06T21:03:39.952Z,1.98
2023-01-06T21:06:07.890Z,2.03
2023-01-06T21:08:35.574Z,3.35
2023-01-06T21:11:03.342Z,2.00
2023-01-06T21:13:30.915Z,1.65
2023-01-06T21:15:58.415Z,2.55
2023-01-06T21:18:26.040Z,4.50
2023-01-06T21:20:53.592Z,6.80
2023-01-06T21:23:21.276Z,5.38
2023-01-06T21:25:48.788Z,2.85
2023-01-06T21:28:16.303Z,6.18
2023-01-06T21:30:43.812Z,3.17
2023-01-06T21:33:11.493Z,4.75
2023-01-06T21:35:39.072Z,3.40
2023-01-06T21:38:06.611Z,2.97
2023-01-06T21:40:34.123Z,1.90
2023-01-06T21:43:10.522Z,3.58
2023-01-06T21:45:40.842Z,1.80
2023-01-06T21:48:09.281Z,1.85
2023-01-06T21:50:45.149Z,3.75
2023-01-06T21:53:13.658Z,3.47
2023-01-06T21:55:41.791Z,4.68
2023-01-06T21:58:10.444Z,4.90
2023-01-06T22:00:37.975Z,4.03
2023-01-06T22:03:05.568Z,1.75
2023-01-06T22:05:34.257Z,2.00
2023-01-06T22:08:01.674Z,1.65
2023-01-06T22:10:29.241Z,2.25
2023-01-06T22:12:59.471Z,1.08
2023-01-06T22:15:28.535Z,2.20
2023-01-06T22:17:59.156Z,2.67
2023-01-06T22:20:31.716Z,2.53
2023-01-06T22:23:06.572Z,3.03
2023-01-06T22:25:34.132Z,2.92
2023-01-06T22:28:03.507Z,3.83
2023-01-06T22:30:31.211Z,2.33
2023-01-06T22:32:58.828Z,2.30
2023-01-06T22:35:26.492Z,1.42
2023-01-06T22:37:54.157Z,2.63
2023-01-06T22:40:21.842Z,4.50
2023-01-06T22:42:49.401Z,2.75
2023-01-06T22:45:16.843Z,2.35
2023-01-06T22:47:44.418Z,2.58
2023-01-06T22:50:12.105Z,1.98
2023-01-06T22:52:39.647Z,1.38
2023-01-06T22:55:07.848Z,1.83
2023-01-06T22:57:35.391Z,3.78
2023-01-06T23:00:03.251Z,1.95
2023-01-06T23:02:31.788Z,2.70
2023-01-06T23:04:59.443Z,2.80
2023-01-06T23:07:26.980Z,3.63
2023-01-06T23:09:54.509Z,2.67
2023-01-06T23:12:21.986Z,1.60
2023-01-06T23:14:49.442Z,2.88
2023-01-06T23:17:17.003Z,1.27
2023-01-06T23:19:44.485Z,1.92
2023-01-06T23:22:11.952Z,2.15
2023-01-06T23:24:39.399Z,1.27
2023-01-06T23:27:07.688Z,2.78
2023-01-06T23:29:35.313Z,2.05
2023-01-06T23:32:02.784Z,1.15
2023-01-06T23:34:30.315Z,2.58
2023-01-06T23:36:57.735Z,1.00
2023-01-06T23:39:25.871Z,2.05
2023-01-06T23:41:54.937Z,2.03
2023-01-06T23:44:22.383Z,1.30
2023-01-06T23:46:49.952Z,1.10
2023-01-06T23:49:17.774Z,2.30
2023-01-06T23:51:45.666Z,1.90
2023-01-06T23:54:13.830Z,1.15
2023-01-06T23:56:41.996Z,2.08
2023-01-06T23:59:12.315Z,1.45
